createdAt,value
2022-10-25T00:01:57.637Z,15.10
2022-10-25T00:04:26.402Z,15.10
2022-10-25T00:06:54.624Z,15.10
2022-10-25T00:09:22.860Z,15.10
2022-10-25T00:11:51.368Z,15.20
2022-10-25T00:14:20.936Z,15.10
2022-10-25T00:16:49.145Z,15.10
2022-10-25T00:19:17.445Z,15.10
2022-10-25T00:21:45.987Z,15.10
2022-10-25T00:24:14.806Z,15.00
2022-10-25T00:26:43.109Z,15.10
2022-10-25T00:29:12.111Z,15.10
2022-10-25T00:31:42.054Z,15.00
2022-10-25T00:34:10.278Z,15.10
2022-10-25T00:36:38.513Z,15.00
2022-10-25T00:39:06.723Z,15.00
2022-10-25T00:41:36.497Z,15.00
2022-10-25T00:44:41.977Z,15.00
2022-10-25T00:47:19.332Z,15.00
2022-10-25T00:49:50.676Z,14.90
2022-10-25T00:52:19.003Z,15.00
2022-10-25T00:54:51.710Z,15.00
2022-10-25T00:57:23.501Z,14.90
2022-10-25T00:59:52.375Z,14.90
2022-10-25T01:02:24.003Z,15.00
2022-10-25T01:04:53.678Z,15.00
2022-10-25T01:07:21.872Z,14.90
2022-10-25T01:09:51.302Z,14.90
2022-10-25T01:12:19.569Z,14.90
2022-10-25T01:14:51.917Z,14.90
2022-10-25T01:17:29.981Z,14.90
2022-10-25T01:20:26.550Z,14.90
2022-10-25T01:23:02.770Z,14.90
2022-10-25T01:26:10.756Z,14.80
2022-10-25T01:28:50.025Z,14.90
2022-10-25T01:31:39.645Z,14.90
2022-10-25T01:34:12.370Z,14.80
2022-10-25T01:36:47.072Z,14.80
2022-10-25T01:39:21.243Z,14.80
2022-10-25T01:42:01.427Z,14.80
2022-10-25T01:44:38.355Z,14.90
2022-10-25T01:47:13.407Z,14.80
2022-10-25T01:49:47.937Z,14.80
2022-10-25T01:52:17.682Z,14.70
2022-10-25T01:54:45.896Z,14.80
2022-10-25T01:57:32.943Z,14.80
2022-10-25T02:00:08.375Z,14.70
2022-10-25T02:02:50.762Z,14.70
2022-10-25T02:05:27.334Z,14.70
2022-10-25T02:08:04.028Z,14.70
2022-10-25T02:10:37.778Z,14.70
2022-10-25T02:13:17.620Z,14.70
2022-10-25T02:15:55.734Z,14.70
2022-10-25T02:21:06.570Z,14.70
2022-10-25T02:23:37.846Z,14.70
2022-10-25T02:26:07.969Z,14.70
2022-10-25T02:28:39.463Z,14.80
2022-10-25T02:31:09.826Z,14.70
2022-10-25T02:33:39.975Z,14.80
2022-10-25T02:36:10.773Z,14.90
2022-10-25T02:38:39.451Z,14.90
2022-10-25T02:41:08.487Z,14.90
2022-10-25T02:43:36.665Z,14.90
2022-10-25T02:46:09.113Z,14.90
2022-10-25T02:48:39.523Z,14.90
2022-10-25T02:51:09.038Z,14.90
2022-10-25T02:53:37.760Z,14.80
2022-10-25T02:56:08.356Z,14.80
2022-10-25T02:58:38.362Z,14.90
2022-10-25T03:01:07.721Z,14.90
2022-10-25T03:03:37.800Z,14.90
2022-10-25T03:06:08.036Z,15.00
2022-10-25T03:08:36.958Z,15.00
2022-10-25T03:11:06.234Z,14.90
2022-10-25T03:13:34.483Z,14.90
2022-10-25T03:16:03.228Z,14.90
2022-10-25T03:18:36.766Z,14.90
2022-10-25T03:21:07.477Z,14.80
2022-10-25T03:23:36.013Z,14.90
2022-10-25T03:26:04.566Z,14.90
2022-10-25T03:28:32.951Z,14.80
2022-10-25T03:31:01.661Z,14.80
2022-10-25T03:35:59.520Z,14.80
2022-10-25T03:38:29.164Z,14.70
2022-10-25T03:40:57.391Z,14.70
2022-10-25T03:43:25.881Z,14.70
2022-10-25T03:45:54.478Z,14.60
2022-10-25T03:48:22.973Z,14.70
2022-10-25T03:50:51.172Z,14.70
2022-10-25T03:53:19.908Z,14.60
2022-10-25T03:55:49.973Z,14.70
2022-10-25T03:58:19.765Z,14.70
2022-10-25T04:00:47.982Z,14.70
2022-10-25T04:03:16.555Z,14.80
2022-10-25T04:05:44.870Z,14.70
2022-10-25T04:08:13.097Z,14.70
2022-10-25T04:10:41.325Z,14.70
2022-10-25T04:13:10.928Z,14.60
2022-10-25T04:15:39.736Z,14.60
2022-10-25T04:18:08.239Z,14.60
2022-10-25T04:20:36.473Z,14.60
2022-10-25T04:23:04.646Z,14.60
2022-10-25T04:25:33.214Z,14.60
2022-10-25T04:28:01.452Z,14.60
2022-10-25T04:30:35.070Z,14.60
2022-10-25T04:33:06.177Z,14.50
2022-10-25T04:35:34.678Z,14.50
2022-10-25T04:38:02.873Z,14.60
2022-10-25T04:40:31.127Z,14.60
2022-10-25T04:43:02.335Z,14.60
2022-10-25T04:45:32.363Z,14.60
2022-10-25T04:48:01.399Z,14.60
2022-10-25T04:50:29.836Z,14.60
2022-10-25T04:52:58.116Z,14.60
2022-10-25T04:55:26.331Z,14.60
2022-10-25T04:57:54.555Z,14.60
2022-10-25T05:00:23.218Z,14.50
2022-10-25T05:02:54.582Z,14.50
2022-10-25T05:05:24.557Z,14.50
2022-10-25T05:07:53.053Z,14.50
2022-10-25T05:10:21.277Z,14.50
2022-10-25T05:12:49.710Z,14.50
2022-10-25T05:15:19.420Z,14.50
2022-10-25T05:17:47.682Z,14.50
2022-10-25T05:20:17.571Z,14.50
2022-10-25T05:22:46.147Z,14.50
2022-10-25T05:25:14.478Z,14.40
2022-10-25T05:27:42.986Z,14.40
2022-10-25T05:30:12.544Z,14.50
2022-10-25T05:32:43.912Z,14.40
2022-10-25T05:35:12.238Z,14.40
2022-10-25T05:37:41.813Z,14.40
2022-10-25T05:40:11.713Z,14.40
2022-10-25T05:42:39.891Z,14.40
2022-10-25T05:45:08.913Z,14.40
2022-10-25T05:47:37.218Z,14.30
2022-10-25T05:50:05.726Z,14.30
2022-10-25T05:52:34.204Z,14.30
2022-10-25T05:55:04.420Z,14.30
2022-10-25T05:57:32.759Z,14.30
2022-10-25T06:00:00.953Z,14.30
2022-10-25T06:02:29.529Z,14.30
2022-10-25T06:04:57.939Z,14.30
2022-10-25T06:07:26.339Z,14.30
2022-10-25T06:09:54.914Z,14.30
2022-10-25T06:12:24.609Z,14.30
2022-10-25T06:14:52.837Z,14.30
2022-10-25T06:17:21.382Z,14.30
2022-10-25T06:19:49.601Z,14.20
2022-10-25T06:22:17.940Z,14.30
2022-10-25T06:24:46.281Z,14.20
2022-10-25T06:27:14.793Z,14.20
2022-10-25T06:29:44.444Z,14.20
2022-10-25T06:32:12.801Z,14.20
2022-10-25T06:34:41.125Z,14.20
2022-10-25T06:37:09.699Z,14.20
2022-10-25T06:39:37.955Z,14.20
2022-10-25T06:42:06.437Z,14.20
2022-10-25T06:44:34.736Z,14.20
2022-10-25T06:47:16.950Z,14.20
2022-10-25T06:49:46.627Z,14.30
2022-10-25T06:52:15.227Z,14.30
2022-10-25T06:54:43.504Z,14.30
2022-10-25T06:57:11.676Z,14.30
2022-10-25T06:59:39.944Z,14.30
2022-10-25T07:02:11.009Z,14.30
2022-10-25T07:04:39.323Z,14.30
2022-10-25T07:07:07.609Z,14.40
2022-10-25T07:09:35.862Z,14.40
2022-10-25T07:12:06.603Z,14.40
2022-10-25T07:14:38.600Z,14.40
2022-10-25T07:17:06.827Z,14.40
2022-10-25T07:19:36.805Z,14.50
2022-10-25T07:22:05.052Z,14.50
2022-10-25T07:24:33.252Z,14.50
2022-10-25T07:27:01.493Z,14.50
2022-10-25T07:29:30.236Z,14.50
2022-10-25T07:31:58.550Z,14.60
2022-10-25T07:34:27.076Z,14.60
2022-10-25T07:36:57.054Z,14.60
2022-10-25T07:39:25.286Z,14.60
2022-10-25T07:41:54.139Z,14.60
2022-10-25T07:44:24.906Z,14.60
2022-10-25T07:46:54.054Z,14.60
2022-10-25T07:49:22.644Z,14.60
2022-10-25T07:51:51.319Z,14.60
2022-10-25T07:54:20.923Z,14.70
2022-10-25T07:56:49.327Z,14.80
2022-10-25T07:59:17.573Z,14.80
2022-10-25T08:01:46.271Z,14.90
2022-10-25T08:04:15.463Z,14.90
2022-10-25T08:06:43.698Z,15.00
2022-10-25T08:09:14.776Z,15.00
2022-10-25T08:11:56.669Z,15.10
2022-10-25T08:14:24.951Z,15.10
2022-10-25T08:16:53.229Z,15.10
2022-10-25T08:19:21.754Z,15.10
2022-10-25T08:21:49.982Z,15.10
2022-10-25T08:26:51.396Z,15.20
2022-10-25T08:29:21.396Z,15.20
2022-10-25T08:31:49.667Z,15.20
2022-10-25T08:34:17.919Z,15.30
2022-10-25T08:36:46.109Z,15.30
2022-10-25T08:39:14.643Z,15.30
2022-10-25T08:41:49.768Z,15.30
2022-10-25T08:44:26.427Z,15.30
2022-10-25T08:47:02.586Z,15.30
2022-10-25T08:49:39.083Z,15.20
2022-10-25T08:52:17.426Z,15.40
2022-10-25T08:54:46.859Z,15.50
2022-10-25T08:57:23.061Z,15.70
2022-10-25T08:59:54.737Z,15.90
2022-10-25T09:02:34.692Z,15.80
2022-10-25T09:05:03.176Z,15.70
2022-10-25T09:07:56.535Z,15.60
2022-10-25T09:10:38.498Z,15.70
2022-10-25T09:13:18.693Z,15.70
2022-10-25T09:15:57.839Z,15.80
2022-10-25T09:18:39.239Z,15.90
2022-10-25T09:21:15.705Z,15.90
2022-10-25T09:24:00.481Z,15.80
2022-10-25T09:26:44.356Z,15.70
2022-10-25T09:29:19.476Z,15.60
2022-10-25T09:31:52.353Z,15.60
2022-10-25T09:34:24.748Z,15.50
2022-10-25T09:36:59.024Z,15.50
2022-10-25T09:39:35.786Z,15.40
2022-10-25T09:42:05.112Z,15.40
2022-10-25T09:44:42.377Z,15.40
2022-10-25T09:47:30.073Z,15.40
2022-10-25T09:50:02.774Z,15.40
2022-10-25T09:52:41.720Z,15.50
2022-10-25T09:55:33.636Z,15.40
2022-10-25T09:58:02.746Z,15.50
2022-10-25T10:00:31.520Z,15.50
2022-10-25T10:03:01.412Z,15.40
2022-10-25T10:05:30.480Z,15.40
2022-10-25T10:07:58.771Z,15.40
2022-10-25T10:10:33.924Z,15.50
2022-10-25T10:13:07.948Z,15.60
2022-10-25T10:15:47.085Z,15.60
2022-10-25T10:18:28.139Z,15.70
2022-10-25T10:21:03.001Z,15.70
2022-10-25T10:23:33.949Z,15.70
2022-10-25T10:26:04.070Z,15.70
2022-10-25T10:28:32.750Z,15.70
2022-10-25T10:31:01.830Z,15.70
2022-10-25T10:33:34.325Z,15.80
2022-10-25T10:36:28.436Z,15.80
2022-10-25T10:39:14.538Z,15.90
2022-10-25T10:42:03.502Z,15.90
2022-10-25T10:44:34.614Z,15.90
2022-10-25T10:47:12.694Z,16.00
2022-10-25T10:49:44.110Z,16.00
2022-10-25T10:52:29.335Z,16.00
2022-10-25T10:54:58.121Z,16.00
2022-10-25T10:57:31.427Z,16.00
2022-10-25T11:00:01.490Z,16.10
2022-10-25T11:02:40.399Z,16.10
2022-10-25T11:05:23.192Z,16.00
2022-10-25T11:07:57.306Z,16.10
2022-10-25T11:10:29.169Z,16.00
2022-10-25T11:13:08.565Z,16.00
2022-10-25T11:16:01.664Z,15.90
2022-10-25T11:18:40.805Z,15.90
2022-10-25T11:21:18.772Z,15.80
2022-10-25T11:24:00.361Z,15.80
2022-10-25T11:26:38.046Z,15.80
2022-10-25T11:29:13.660Z,15.90
2022-10-25T11:31:56.728Z,15.90
2022-10-25T11:34:34.132Z,15.90
2022-10-25T11:37:16.595Z,15.80
2022-10-25T11:39:56.058Z,15.90
2022-10-25T11:42:44.650Z,15.90
2022-10-25T11:45:36.900Z,15.90
2022-10-25T11:48:21.864Z,15.90
2022-10-25T11:50:59.261Z,15.90
2022-10-25T11:53:52.063Z,16.00
2022-10-25T11:56:28.617Z,16.00
2022-10-25T11:59:05.976Z,16.10
2022-10-25T12:01:47.444Z,16.00
2022-10-25T12:04:39.425Z,16.10
2022-10-25T12:07:14.106Z,16.00
2022-10-25T12:09:56.217Z,16.10
2022-10-25T12:12:31.878Z,16.20
2022-10-25T12:15:04.206Z,16.20
2022-10-25T12:17:35.326Z,16.20
2022-10-25T12:20:06.797Z,16.30
2022-10-25T12:22:39.922Z,16.40
2022-10-25T12:25:19.683Z,16.40
2022-10-25T12:27:54.447Z,16.50
2022-10-25T12:32:59.081Z,16.60
2022-10-25T12:35:32.164Z,16.70
2022-10-25T12:38:06.573Z,16.70
2022-10-25T12:40:42.736Z,16.60
2022-10-25T12:43:18.348Z,16.60
2022-10-25T12:46:01.761Z,16.50
2022-10-25T12:49:04.468Z,16.50
2022-10-25T12:51:47.410Z,16.50
2022-10-25T12:54:36.392Z,16.60
2022-10-25T12:57:15.625Z,16.50
2022-10-25T12:59:56.744Z,16.50
2022-10-25T13:03:01.859Z,16.50
2022-10-25T13:05:55.770Z,16.50
2022-10-25T13:08:26.940Z,16.70
2022-10-25T13:11:01.940Z,16.80
2022-10-25T13:13:33.841Z,17.00
2022-10-25T13:16:04.639Z,17.10
2022-10-25T13:18:42.907Z,17.20
2022-10-25T13:21:13.202Z,17.20
2022-10-25T13:24:10.242Z,17.20
2022-10-25T13:27:15.091Z,17.30
2022-10-25T13:30:00.854Z,17.40
2022-10-25T13:32:30.202Z,17.50
2022-10-25T13:34:59.098Z,17.80
2022-10-25T13:37:43.280Z,18.00
2022-10-25T13:40:30.580Z,18.20
2022-10-25T13:43:05.794Z,18.30
2022-10-25T13:45:42.809Z,18.40
2022-10-25T13:48:29.836Z,18.50
2022-10-25T13:51:01.037Z,18.60
2022-10-25T13:53:37.783Z,18.80
2022-10-25T13:56:08.217Z,18.90
2022-10-25T13:58:44.481Z,19.00
2022-10-25T14:01:57.092Z,19.10
2022-10-25T14:04:40.473Z,19.20
2022-10-25T14:07:46.024Z,19.30
2022-10-25T14:10:22.136Z,19.20
2022-10-25T14:12:53.631Z,19.00
2022-10-25T14:15:41.048Z,18.70
2022-10-25T14:18:13.794Z,18.50
2022-10-25T14:20:47.375Z,18.30
2022-10-25T14:23:19.505Z,18.10
2022-10-25T14:25:54.665Z,17.90
2022-10-25T14:28:25.397Z,17.70
2022-10-25T14:30:56.475Z,17.70
2022-10-25T14:33:27.663Z,17.70
2022-10-25T14:36:09.251Z,17.60
2022-10-25T14:38:50.314Z,17.70
2022-10-25T14:41:23.430Z,17.70
2022-10-25T14:43:52.649Z,17.70
2022-10-25T14:46:22.266Z,17.80
2022-10-25T14:48:56.212Z,17.80
2022-10-25T14:51:29.784Z,17.90
2022-10-25T14:54:03.211Z,17.90
2022-10-25T14:56:35.675Z,17.80
2022-10-25T14:59:05.972Z,17.80
2022-10-25T15:01:35.909Z,17.70
2022-10-25T15:04:04.262Z,17.60
2022-10-25T15:06:34.060Z,17.50
2022-10-25T15:09:40.768Z,17.60
2022-10-25T15:12:09.729Z,17.60
2022-10-25T15:14:38.081Z,17.60
2022-10-25T15:17:15.165Z,17.50
2022-10-25T15:20:02.044Z,17.50
2022-10-25T15:22:32.892Z,17.40
2022-10-25T15:25:01.338Z,17.40
2022-10-25T15:27:35.358Z,17.30
2022-10-25T15:30:04.911Z,17.20
2022-10-25T15:32:36.942Z,17.10
2022-10-25T15:35:05.991Z,17.00
2022-10-25T15:37:35.916Z,17.00
2022-10-25T15:40:16.506Z,17.00
2022-10-25T15:42:44.875Z,16.90
2022-10-25T15:45:13.464Z,16.90
2022-10-25T15:47:43.107Z,16.90
2022-10-25T15:50:16.640Z,16.90
2022-10-25T15:52:47.340Z,16.90
2022-10-25T15:55:20.487Z,16.80
2022-10-25T15:57:49.311Z,16.70
2022-10-25T16:00:21.842Z,16.70
2022-10-25T16:02:53.712Z,16.70
2022-10-25T16:05:25.231Z,16.60
2022-10-25T16:07:55.855Z,16.60
2022-10-25T16:10:25.667Z,16.60
2022-10-25T16:12:59.515Z,16.50
2022-10-25T16:15:28.966Z,16.50
2022-10-25T16:17:57.537Z,16.40
2022-10-25T16:20:27.868Z,16.30
2022-10-25T16:22:58.339Z,16.30
2022-10-25T16:25:30.653Z,16.30
2022-10-25T16:28:01.669Z,16.20
2022-10-25T16:30:35.867Z,16.10
2022-10-25T16:33:05.754Z,16.00
2022-10-25T16:35:34.138Z,16.00
2022-10-25T16:38:07.928Z,15.90
2022-10-25T16:40:39.258Z,15.90
2022-10-25T16:43:07.499Z,15.80
2022-10-25T16:45:38.292Z,15.70
2022-10-25T16:48:07.600Z,15.70
2022-10-25T16:50:36.183Z,15.60
2022-10-25T16:53:09.256Z,15.60
2022-10-25T16:55:37.909Z,15.50
2022-10-25T16:58:06.397Z,15.50
2022-10-25T17:00:36.094Z,15.50
2022-10-25T17:03:04.506Z,15.40
2022-10-25T17:05:34.355Z,15.40
2022-10-25T17:08:02.746Z,15.30
2022-10-25T17:10:32.341Z,15.20
2022-10-25T17:13:03.517Z,15.20
2022-10-25T17:15:32.566Z,15.10
2022-10-25T17:18:00.925Z,15.10
2022-10-25T17:20:29.827Z,15.10
2022-10-25T17:22:58.192Z,15.00
2022-10-25T17:25:26.468Z,15.00
2022-10-25T17:27:56.240Z,14.90
2022-10-25T17:30:25.033Z,14.90
2022-10-25T17:32:53.237Z,14.90
2022-10-25T17:35:28.620Z,14.80
2022-10-25T17:37:58.231Z,14.80
2022-10-25T17:40:26.852Z,14.80
2022-10-25T17:42:57.486Z,14.70
2022-10-25T17:45:27.347Z,14.70
2022-10-25T17:47:56.913Z,14.70
2022-10-25T17:50:25.653Z,14.70
2022-10-25T17:52:54.509Z,14.60
2022-10-25T17:55:23.290Z,14.60
2022-10-25T17:57:51.931Z,14.60
2022-10-25T18:00:21.818Z,14.50
2022-10-25T18:02:52.741Z,14.50
2022-10-25T18:05:22.629Z,14.40
2022-10-25T18:07:51.235Z,14.40
2022-10-25T18:10:20.008Z,14.40
2022-10-25T18:12:49.246Z,14.40
2022-10-25T18:15:18.310Z,14.40
2022-10-25T18:17:49.402Z,14.40
2022-10-25T18:20:18.451Z,14.30
2022-10-25T18:22:46.874Z,14.30
2022-10-25T18:25:15.419Z,14.20
2022-10-25T18:27:43.926Z,14.20
2022-10-25T18:30:13.242Z,14.20
2022-10-25T18:32:42.065Z,14.20
2022-10-25T18:35:12.076Z,14.20
2022-10-25T18:37:40.493Z,14.10
2022-10-25T18:40:10.478Z,14.10
2022-10-25T18:42:39.065Z,14.20
2022-10-25T18:45:08.240Z,14.20
2022-10-25T18:47:37.041Z,14.20
2022-10-25T18:50:06.127Z,14.10
2022-10-25T18:52:35.780Z,14.10
2022-10-25T18:55:04.382Z,14.10
2022-10-25T18:57:32.888Z,14.00
2022-10-25T19:00:01.302Z,14.10
2022-10-25T19:02:34.109Z,14.00
2022-10-25T19:07:40.408Z,13.90
2022-10-25T19:10:09.332Z,13.90
2022-10-25T19:12:37.616Z,13.90
2022-10-25T19:15:06.738Z,13.80
2022-10-25T19:17:35.828Z,13.80
2022-10-25T19:20:04.773Z,13.80
2022-10-25T19:22:33.156Z,13.80
2022-10-25T19:25:03.372Z,13.80
2022-10-25T19:27:31.746Z,13.80
2022-10-25T19:30:00.164Z,13.80
2022-10-25T19:32:30.874Z,13.80
2022-10-25T19:35:00.179Z,13.80
2022-10-25T19:37:28.624Z,13.80
2022-10-25T19:39:59.045Z,13.80
2022-10-25T19:42:29.197Z,13.80
2022-10-25T19:47:31.528Z,13.80
2022-10-25T19:49:59.986Z,13.80
2022-10-25T19:52:28.390Z,13.80
2022-10-25T19:54:56.776Z,13.80
2022-10-25T19:57:25.135Z,13.90
2022-10-25T19:59:55.181Z,13.80
2022-10-25T20:02:23.734Z,13.80
2022-10-25T20:04:52.153Z,13.80
2022-10-25T20:07:20.766Z,13.70
2022-10-25T20:09:49.135Z,13.80
2022-10-25T20:12:17.513Z,13.70
2022-10-25T20:14:45.871Z,13.60
2022-10-25T20:17:15.999Z,13.60
2022-10-25T20:19:44.261Z,13.60
2022-10-25T20:22:12.538Z,13.60
2022-10-25T20:24:41.436Z,13.60
2022-10-25T20:27:09.791Z,13.50
2022-10-25T20:29:38.044Z,13.50
2022-10-25T20:32:06.862Z,13.50
2022-10-25T20:34:37.542Z,13.50
2022-10-25T20:37:06.663Z,13.40
2022-10-25T20:39:35.577Z,13.40
2022-10-25T20:42:04.622Z,13.40
2022-10-25T20:44:33.506Z,13.40
2022-10-25T20:47:02.471Z,13.30
2022-10-25T20:49:32.628Z,13.40
2022-10-25T20:52:03.132Z,13.30
2022-10-25T20:54:32.310Z,13.30
2022-10-25T20:57:01.060Z,13.30
2022-10-25T20:59:31.406Z,13.30
2022-10-25T21:02:00.409Z,13.30
2022-10-25T21:04:42.470Z,13.30
2022-10-25T21:07:19.526Z,13.30
2022-10-25T21:09:49.551Z,13.40
2022-10-25T21:12:18.592Z,13.40
2022-10-25T21:14:47.383Z,13.50
2022-10-25T21:17:16.958Z,13.60
2022-10-25T21:19:45.798Z,13.70
2022-10-25T21:22:14.617Z,13.80
2022-10-25T21:24:44.914Z,13.80
2022-10-25T21:27:15.104Z,13.90
2022-10-25T21:29:43.843Z,13.90
2022-10-25T21:32:12.675Z,14.00
2022-10-25T21:34:41.468Z,14.00
2022-10-25T21:37:10.697Z,14.10
2022-10-25T21:39:39.449Z,14.10
2022-10-25T21:42:09.782Z,14.20
2022-10-25T21:44:38.628Z,14.20
2022-10-25T21:47:07.471Z,14.30
2022-10-25T21:49:36.273Z,14.30
2022-10-25T21:52:05.179Z,14.30
2022-10-25T21:54:34.256Z,14.30
2022-10-25T21:57:03.012Z,14.30
2022-10-25T21:59:33.454Z,14.30
2022-10-25T22:02:03.147Z,14.40
2022-10-25T22:04:34.343Z,14.40
2022-10-25T22:07:03.219Z,14.40
2022-10-25T22:09:32.235Z,14.40
2022-10-25T22:12:01.018Z,14.40
2022-10-25T22:14:30.055Z,14.50
2022-10-25T22:17:00.232Z,14.50
2022-10-25T22:19:29.041Z,14.50
2022-10-25T22:21:57.761Z,14.60
2022-10-25T22:24:26.486Z,14.60
2022-10-25T22:26:55.195Z,14.70
2022-10-25T22:29:24.009Z,14.70
2022-10-25T22:31:52.773Z,14.80
2022-10-25T22:34:23.677Z,14.90
2022-10-25T22:36:52.419Z,14.90
2022-10-25T22:39:21.112Z,14.90
2022-10-25T22:41:53.887Z,15.00
2022-10-25T22:44:23.166Z,15.00
2022-10-25T22:46:51.950Z,15.10
2022-10-25T22:49:21.933Z,15.10
2022-10-25T22:51:52.180Z,15.10
2022-10-25T22:54:21.462Z,15.10
2022-10-25T22:56:50.189Z,15.20
2022-10-25T22:59:19.111Z,15.20
2022-10-25T23:01:47.916Z,15.20
2022-10-25T23:04:17.201Z,15.20
2022-10-25T23:06:45.990Z,15.20
2022-10-25T23:09:16.228Z,15.20
2022-10-25T23:11:46.162Z,15.10
2022-10-25T23:14:17.396Z,15.10
2022-10-25T23:16:46.571Z,15.10
2022-10-25T23:19:15.954Z,15.10
2022-10-25T23:21:44.831Z,15.10
2022-10-25T23:24:13.712Z,15.10
2022-10-25T23:26:44.271Z,15.00
2022-10-25T23:29:14.638Z,15.00
2022-10-25T23:31:43.389Z,15.00
2022-10-25T23:34:12.783Z,15.00
2022-10-25T23:36:41.724Z,15.00
2022-10-25T23:39:10.647Z,15.00
2022-10-25T23:41:39.446Z,15.10
2022-10-25T23:44:10.020Z,15.00
2022-10-25T23:46:38.738Z,15.00
2022-10-25T23:49:07.466Z,15.10
2022-10-25T23:51:36.242Z,15.10
2022-10-25T23:54:05.520Z,15.10
2022-10-25T23:56:34.209Z,15.10
2022-10-25T23:59:03.022Z,15.10
